< Typhoon 201508 2015 Season Typhoon 201510 >
Typhoon 201509 (CHAN-HOM)
General InformationDetailed Track InformationTrack Information on Google MapsForecast History on Google MapsAccess Analytics MapList of All Images || NewsDisaster Info.WeblogTrackbackTyphoon FrontTwiphoonTyphoon Now!Typhoon ImaginationDisaster Info. XMLResourceGoogle EarthGE AnimationAtom FeedGeoJSON
Detalied Best Track Wind (Time Zone = UTC)
Year Month Day Hour Lat. Long. Wind (kt) Gust (kt) Direc. of Major Storm Axis Radius of Major Storm Axis (nm) Radius of Minor Storm Axis (nm) Direc. of Major Gale Axis Radius of Major Gale Axis (nm) Radius of Minor Gale Axis (nm) Image
2015 6 29 06 8.6 160.4 0 0 - - - - - - Image
2015 6 29 12 8.9 160.6 0 0 - - - - - - Image
2015 6 29 18 9.2 160.8 0 0 - - - - - - Image
2015 6 30 00 9.6 160.8 0 0 - - - - - - Image
2015 6 30 06 10.0 160.7 0 0 - - - - - - Image
2015 6 30 12 10.3 160.4 35 0 - - - symmetric 120 120 Image
2015 6 30 18 10.8 159.7 40 0 - - - symmetric 120 120 Image
2015 7 1 00 10.9 159.0 40 0 - - - symmetric 150 150 Image
2015 7 1 06 11.1 158.3 40 0 - - - symmetric 150 150 Image
2015 7 1 12 11.5 156.1 45 0 - - - symmetric 150 150 Image
2015 7 1 18 11.7 154.0 50 0 - - - symmetric 150 150 Image
2015 7 2 00 11.4 152.1 50 0 - - - symmetric 180 180 Image
2015 7 2 06 10.8 150.3 50 0 - - - symmetric 180 180 Image
2015 7 2 12 10.0 149.0 55 0 symmetric 60 60 symmetric 180 180 Image
2015 7 2 18 9.8 148.0 55 0 symmetric 60 60 symmetric 180 180 Image
2015 7 3 00 10.3 147.9 55 0 symmetric 40 40 symmetric 180 180 Image
2015 7 3 06 10.8 148.0 50 0 - - - symmetric 240 240 Image
2015 7 3 12 11.4 148.5 45 0 - - - symmetric 240 240 Image
2015 7 3 18 12.2 148.6 45 0 - - - symmetric 240 240 Image
2015 7 4 00 12.7 148.0 45 0 - - - symmetric 240 240 Image
2015 7 4 06 13.2 147.1 45 0 - - - symmetric 240 240 Image
2015 7 4 12 13.5 146.2 45 0 - - - symmetric 270 270 Image
2015 7 4 18 13.7 145.6 45 0 - - - symmetric 270 270 Image
2015 7 5 00 13.8 145.2 45 0 - - - symmetric 270 270 Image
2015 7 5 06 14.5 144.9 45 0 - - - symmetric 270 270 Image
2015 7 5 12 15.1 144.2 45 0 - - - symmetric 300 300 Image
2015 7 5 18 15.9 143.4 50 0 - - - symmetric 300 300 Image
2015 7 6 00 16.5 142.6 55 0 symmetric 30 30 symmetric 300 300 Image
2015 7 6 06 17.2 141.4 55 0 symmetric 40 40 symmetric 300 300 Image
2015 7 6 12 17.4 140.2 55 0 symmetric 40 40 symmetric 300 300 Image
2015 7 6 18 17.5 138.8 60 0 symmetric 60 60 symmetric 300 300 Image
2015 7 7 00 17.7 137.6 65 0 symmetric 60 60 symmetric 300 300 Image
2015 7 7 06 18.1 136.4 70 0 symmetric 90 90 symmetric 300 300 Image
2015 7 7 12 18.5 135.5 70 0 symmetric 90 90 symmetric 300 300 Image
2015 7 7 18 19.1 134.4 70 0 symmetric 90 90 symmetric 300 300 Image
2015 7 8 00 19.6 133.5 70 0 symmetric 100 100 symmetric 300 300 Image
2015 7 8 06 20.4 132.6 70 0 symmetric 100 100 symmetric 300 300 Image
2015 7 8 12 21.0 131.7 70 0 symmetric 100 100 symmetric 300 300 Image
2015 7 8 18 21.7 130.6 70 0 symmetric 100 100 E 350 270 Image
2015 7 9 00 22.5 129.6 70 0 symmetric 100 100 E 350 270 Image
2015 7 9 03 23.0 129.2 70 0 symmetric 100 100 E 350 270 Image
2015 7 9 06 23.3 128.7 75 0 symmetric 150 150 E 350 270 Image
2015 7 9 09 23.8 128.2 80 0 symmetric 150 150 E 350 270 Image
2015 7 9 12 24.2 127.6 85 0 symmetric 150 150 E 350 270 Image
2015 7 9 15 24.6 127.1 85 0 symmetric 150 150 E 350 270 Image
2015 7 9 18 25.1 126.5 90 0 symmetric 150 150 E 350 270 Image
2015 7 9 21 25.5 125.9 90 0 symmetric 150 150 E 350 270 Image
2015 7 10 00 25.7 125.5 90 0 symmetric 150 150 E 350 270 Image
2015 7 10 03 26.1 125.1 90 0 symmetric 150 150 E 350 270 Image
2015 7 10 06 26.5 124.7 90 0 symmetric 150 150 E 350 270 Image
2015 7 10 09 26.9 124.3 90 0 symmetric 150 150 E 375 270 Image
2015 7 10 12 27.3 124.0 85 0 symmetric 150 150 E 375 270 Image
2015 7 10 18 27.8 123.3 85 0 symmetric 150 150 E 375 270 Image
2015 7 11 00 28.7 122.9 80 0 symmetric 130 130 E 375 270 Image
2015 7 11 06 29.5 122.5 75 0 symmetric 100 100 E 375 270 Image
2015 7 11 12 30.3 122.9 70 0 symmetric 90 90 E 375 270 Image
2015 7 11 18 31.8 123.2 60 0 symmetric 60 60 E 325 240 Image
2015 7 12 00 33.3 123.6 55 0 symmetric 60 60 E 325 210 Image
2015 7 12 06 34.9 124.2 50 0 - - - E 325 210 Image
2015 7 12 12 36.5 124.7 45 0 - - - E 325 210 Image
2015 7 12 18 38.2 125.4 40 0 - - - E 325 210 Image
2015 7 13 00 40.0 126.0 0 0 - - - - - - Image
Japan Meteorological Agency Best Track Data | Correction Date : 2015-08-19
< Typhoon 201508 2015 Season Typhoon 201510 >

Help